createdAt,value
2023-02-26T00:01:29.854Z,4.28
2023-02-26T00:04:01.289Z,4.15
2023-02-26T00:06:31.298Z,4.82
2023-02-26T00:08:58.744Z,2.83
2023-02-26T00:11:26.263Z,3.10
2023-02-26T00:13:53.810Z,3.38
2023-02-26T00:16:27.448Z,3.33
2023-02-26T00:18:59.484Z,3.38
2023-02-26T00:21:28.066Z,3.38
2023-02-26T00:23:55.666Z,2.75
2023-02-26T00:26:25.282Z,4.03
2023-02-26T00:28:53.035Z,4.18
2023-02-26T00:31:24.793Z,3.78
2023-02-26T00:33:54.176Z,3.17
2023-02-26T00:36:29.656Z,4.15
2023-02-26T00:39:03.451Z,3.33
2023-02-26T00:41:31.435Z,3.22
2023-02-26T00:43:59.164Z,3.22
2023-02-26T00:46:45.576Z,3.10
2023-02-26T00:49:21.855Z,2.83
2023-02-26T00:51:50.454Z,2.90
2023-02-26T00:54:25.228Z,2.95
2023-02-26T00:56:54.561Z,2.88
2023-02-26T00:59:22.501Z,2.90
2023-02-26T01:01:50.875Z,2.95
2023-02-26T01:04:21.967Z,2.90
2023-02-26T01:06:52.719Z,2.35
2023-02-26T01:09:26.038Z,2.45
2023-02-26T01:11:55.123Z,2.05
2023-02-26T01:14:22.691Z,3.95
2023-02-26T01:17:29.314Z,2.35
2023-02-26T01:20:05.465Z,2.70
2023-02-26T01:22:42.582Z,3.00
2023-02-26T01:25:16.278Z,1.95
2023-02-26T01:27:43.715Z,2.47
2023-02-26T01:30:12.109Z,3.10
2023-02-26T01:33:09.202Z,2.17
2023-02-26T01:35:42.714Z,2.53
2023-02-26T01:38:18.661Z,2.00
2023-02-26T01:41:03.554Z,2.45
2023-02-26T01:44:01.257Z,2.28
2023-02-26T01:46:46.261Z,2.03
2023-02-26T01:51:48.337Z,1.73
2023-02-26T01:54:20.640Z,2.97
2023-02-26T01:56:52.809Z,2.25
2023-02-26T01:59:24.514Z,1.85
2023-02-26T02:01:58.320Z,1.75
2023-02-26T02:04:26.849Z,1.77
2023-02-26T02:06:55.409Z,2.47
2023-02-26T02:09:23.077Z,1.45
2023-02-26T02:12:25.806Z,1.90
2023-02-26T02:15:15.359Z,1.20
2023-02-26T02:18:31.042Z,2.13
2023-02-26T02:21:09.722Z,2.50
2023-02-26T02:23:43.688Z,2.20
2023-02-26T02:26:20.374Z,1.90
2023-02-26T02:29:03.197Z,1.77
2023-02-26T02:31:53.984Z,1.98
2023-02-26T02:34:34.506Z,1.25
2023-02-26T02:37:28.275Z,1.40
2023-02-26T02:40:02.032Z,1.30
2023-02-26T02:42:35.622Z,1.93
2023-02-26T02:45:11.598Z,1.25
2023-02-26T02:47:43.313Z,1.27
2023-02-26T02:50:17.450Z,2.22
2023-02-26T02:53:03.712Z,1.38
2023-02-26T02:55:41.835Z,1.17
2023-02-26T02:58:17.720Z,1.45
2023-02-26T03:00:49.916Z,1.30
2023-02-26T03:03:29.918Z,2.20
2023-02-26T03:05:57.282Z,1.52
2023-02-26T03:08:29.583Z,1.42
2023-02-26T03:10:57.757Z,1.50
2023-02-26T03:13:26.791Z,1.60
2023-02-26T03:16:14.873Z,1.67
2023-02-26T03:19:19.573Z,1.17
2023-02-26T03:22:09.142Z,1.80
2023-02-26T03:24:45.924Z,1.55
2023-02-26T03:27:24.891Z,1.88
2023-02-26T03:30:06.097Z,1.73
2023-02-26T03:32:45.803Z,2.03
2023-02-26T03:35:20.130Z,1.27
2023-02-26T03:37:50.820Z,2.47
2023-02-26T03:40:27.401Z,1.58
2023-02-26T03:43:15.787Z,1.45
2023-02-26T03:45:47.012Z,1.17
2023-02-26T03:48:19.050Z,1.50
2023-02-26T03:50:51.181Z,2.08
2023-02-26T03:53:28.491Z,1.73
2023-02-26T03:56:08.332Z,2.63
2023-02-26T03:58:35.743Z,2.10
2023-02-26T04:01:15.719Z,2.13
2023-02-26T04:04:01.339Z,1.60
2023-02-26T04:06:29.507Z,1.48
2023-02-26T04:08:57.219Z,1.38
2023-02-26T04:11:25.873Z,1.27
2023-02-26T04:13:53.166Z,1.23
2023-02-26T04:16:20.625Z,1.30
2023-02-26T04:18:47.895Z,1.58
2023-02-26T04:21:20.906Z,1.27
2023-02-26T04:23:48.532Z,1.38
2023-02-26T04:26:16.066Z,1.55
2023-02-26T04:28:43.422Z,2.10
2023-02-26T04:31:10.915Z,2.17
2023-02-26T04:33:38.341Z,1.92
2023-02-26T04:36:05.940Z,2.15
2023-02-26T04:38:33.516Z,2.13
2023-02-26T04:41:00.887Z,1.50
2023-02-26T04:43:28.600Z,1.13
2023-02-26T04:45:55.847Z,1.70
2023-02-26T04:48:23.191Z,2.45
2023-02-26T04:50:50.647Z,2.15
2023-02-26T04:53:17.935Z,0.88
2023-02-26T04:55:47.417Z,0.98
2023-02-26T04:58:14.904Z,1.50
2023-02-26T05:00:42.272Z,1.65
2023-02-26T05:03:10.070Z,1.33
2023-02-26T05:05:37.534Z,1.55
2023-02-26T05:08:04.830Z,1.45
2023-02-26T05:10:32.116Z,1.15
2023-02-26T05:12:59.374Z,1.73
2023-02-26T05:15:26.678Z,1.50
2023-02-26T05:17:53.925Z,1.20
2023-02-26T05:20:21.630Z,1.38
2023-02-26T05:22:48.964Z,0.93
2023-02-26T05:25:16.411Z,1.10
2023-02-26T05:27:44.147Z,2.15
2023-02-26T05:30:14.582Z,1.88
2023-02-26T05:32:42.639Z,0.93
2023-02-26T05:35:10.660Z,1.42
2023-02-26T05:37:38.426Z,1.05
2023-02-26T05:40:09.306Z,1.77
2023-02-26T05:42:37.125Z,2.17
2023-02-26T05:45:06.168Z,2.25
2023-02-26T05:47:34.969Z,0.93
2023-02-26T05:50:03.399Z,2.40
2023-02-26T05:52:30.677Z,0.93
2023-02-26T05:54:57.998Z,1.38
2023-02-26T05:57:25.610Z,1.85
2023-02-26T05:59:53.011Z,2.33
2023-02-26T06:02:20.336Z,1.38
2023-02-26T06:04:47.684Z,2.30
2023-02-26T06:07:15.120Z,1.90
2023-02-26T06:09:42.515Z,2.85
2023-02-26T06:12:10.053Z,1.98
2023-02-26T06:14:37.449Z,1.38
2023-02-26T06:17:05.394Z,1.85
2023-02-26T06:19:32.836Z,1.17
2023-02-26T06:22:00.179Z,1.77
2023-02-26T06:24:27.782Z,1.55
2023-02-26T06:26:55.094Z,1.45
2023-02-26T06:29:23.504Z,0.82
2023-02-26T06:31:51.023Z,1.23
2023-02-26T06:34:18.612Z,2.63
2023-02-26T06:36:46.277Z,1.40
2023-02-26T06:39:13.892Z,1.40
2023-02-26T06:41:41.275Z,2.33
2023-02-26T06:44:10.206Z,1.83
2023-02-26T06:46:37.990Z,2.22
2023-02-26T06:49:05.878Z,2.35
2023-02-26T06:51:33.646Z,1.75
2023-02-26T06:54:00.931Z,1.25
2023-02-26T06:56:28.632Z,1.65
2023-02-26T06:58:56.085Z,1.73
2023-02-26T07:01:24.237Z,1.88
2023-02-26T07:03:51.728Z,1.80
2023-02-26T07:06:27.313Z,1.25
2023-02-26T07:08:55.688Z,1.58
2023-02-26T07:11:23.636Z,1.58
2023-02-26T07:13:52.054Z,2.90
2023-02-26T07:16:19.607Z,0.82
2023-02-26T07:18:46.871Z,1.02
2023-02-26T07:21:14.137Z,1.38
2023-02-26T07:23:41.430Z,2.88
2023-02-26T07:26:09.093Z,1.88
2023-02-26T07:28:36.536Z,0.80
2023-02-26T07:31:03.985Z,2.08
2023-02-26T07:33:31.987Z,1.55
2023-02-26T07:35:59.424Z,3.08
2023-02-26T07:38:26.669Z,1.25
2023-02-26T07:40:57.754Z,2.13
2023-02-26T07:43:25.581Z,2.35
2023-02-26T07:45:54.060Z,0.93
2023-02-26T07:48:21.672Z,0.85
2023-02-26T07:50:51.665Z,3.13
2023-02-26T07:53:19.427Z,1.52
2023-02-26T07:55:47.139Z,6.80
2023-02-26T07:58:14.864Z,3.30
2023-02-26T08:00:42.173Z,3.03
2023-02-26T08:03:09.419Z,2.78
2023-02-26T08:05:36.941Z,3.75
2023-02-26T08:08:04.362Z,3.30
2023-02-26T08:10:31.647Z,4.30
2023-02-26T08:12:58.877Z,5.00
2023-02-26T08:15:26.157Z,5.95
2023-02-26T08:17:54.021Z,2.92
2023-02-26T08:20:21.533Z,4.25
2023-02-26T08:22:50.228Z,4.20
2023-02-26T08:25:18.437Z,3.72
2023-02-26T08:27:45.715Z,2.13
2023-02-26T08:30:13.617Z,1.95
2023-02-26T08:32:42.467Z,3.25
2023-02-26T08:35:10.799Z,2.55
2023-02-26T08:37:38.883Z,2.63
2023-02-26T08:40:08.509Z,1.80
2023-02-26T08:42:36.121Z,2.08
2023-02-26T08:45:03.715Z,2.15
2023-02-26T08:47:31.975Z,2.10
2023-02-26T08:49:59.824Z,1.48
2023-02-26T08:52:27.284Z,3.40
2023-02-26T08:54:54.557Z,3.33
2023-02-26T08:57:21.905Z,1.58
2023-02-26T08:59:49.125Z,1.80
2023-02-26T09:02:16.418Z,1.92
2023-02-26T09:04:43.737Z,2.00
2023-02-26T09:07:11.008Z,2.78
2023-02-26T09:09:38.302Z,1.70
2023-02-26T09:12:05.866Z,2.17
2023-02-26T09:14:33.110Z,1.42
2023-02-26T09:17:00.408Z,1.95
2023-02-26T09:19:27.667Z,2.05
2023-02-26T09:21:55.044Z,1.45
2023-02-26T09:24:22.406Z,1.23
2023-02-26T09:26:49.675Z,2.95
2023-02-26T09:29:16.935Z,2.00
2023-02-26T09:31:44.547Z,2.10
2023-02-26T09:34:12.667Z,2.38
2023-02-26T09:36:40.284Z,1.15
2023-02-26T09:39:08.789Z,1.63
2023-02-26T09:41:44.122Z,0.73
2023-02-26T09:44:32.626Z,1.25
2023-02-26T09:47:16.178Z,1.70
2023-02-26T09:50:06.143Z,2.10
2023-02-26T09:53:00.857Z,1.58
2023-02-26T09:55:47.608Z,1.65
2023-02-26T09:58:37.733Z,0.90
2023-02-26T10:01:10.178Z,1.95
2023-02-26T10:03:54.726Z,2.13
2023-02-26T10:06:48.254Z,0.75
2023-02-26T10:09:40.954Z,2.03
2023-02-26T10:12:20.269Z,1.58
2023-02-26T10:15:15.203Z,1.95
2023-02-26T10:17:45.379Z,1.23
2023-02-26T10:20:20.612Z,1.60
2023-02-26T10:23:05.984Z,1.75
2023-02-26T10:25:47.517Z,0.90
2023-02-26T10:28:41.867Z,0.55
2023-02-26T10:31:56.975Z,1.50
2023-02-26T10:34:34.933Z,0.40
2023-02-26T10:37:24.221Z,0.82
2023-02-26T10:40:16.673Z,0.73
2023-02-26T10:43:14.984Z,0.85
2023-02-26T10:46:04.397Z,1.15
2023-02-26T10:48:40.697Z,1.17
2023-02-26T10:51:21.458Z,0.65
2023-02-26T10:53:57.056Z,1.33
2023-02-26T10:56:31.819Z,1.92
2023-02-26T10:58:59.653Z,1.10
2023-02-26T11:01:30.878Z,1.45
2023-02-26T11:04:05.687Z,2.53
2023-02-26T11:06:44.208Z,1.13
2023-02-26T11:09:36.637Z,1.40
2023-02-26T11:12:13.017Z,0.50
2023-02-26T11:14:42.482Z,0.82
2023-02-26T11:17:17.612Z,1.00
2023-02-26T11:19:54.147Z,1.02
2023-02-26T11:22:24.571Z,1.08
2023-02-26T11:24:53.247Z,1.10
2023-02-26T11:27:26.780Z,0.50
2023-02-26T11:29:58.958Z,1.23
2023-02-26T11:32:35.076Z,1.75
2023-02-26T11:35:02.792Z,1.63
2023-02-26T11:37:35.053Z,0.70
2023-02-26T11:40:17.024Z,1.13
2023-02-26T11:42:55.777Z,1.02
2023-02-26T11:45:24.313Z,1.40
2023-02-26T11:48:05.137Z,1.58
2023-02-26T11:50:43.441Z,0.63
2023-02-26T11:53:32.531Z,1.75
2023-02-26T11:56:03.268Z,1.05
2023-02-26T11:58:37.389Z,2.15
2023-02-26T12:01:07.036Z,0.60
2023-02-26T12:03:40.944Z,1.30
2023-02-26T12:06:17.772Z,0.95
2023-02-26T12:08:45.525Z,0.73
2023-02-26T12:11:50.052Z,1.13
2023-02-26T12:14:48.983Z,0.80
2023-02-26T12:17:37.969Z,0.95
2023-02-26T12:20:15.163Z,0.80
2023-02-26T12:23:03.299Z,1.42
2023-02-26T12:25:52.759Z,0.63
2023-02-26T12:28:28.539Z,1.25
2023-02-26T12:31:27.224Z,2.85
2023-02-26T12:34:03.558Z,1.92
2023-02-26T12:37:13.327Z,1.75
2023-02-26T12:39:49.186Z,2.45
2023-02-26T12:42:22.460Z,2.40
2023-02-26T12:45:20.406Z,3.63
2023-02-26T12:47:56.881Z,2.47
2023-02-26T12:50:58.136Z,1.83
2023-02-26T12:53:59.930Z,2.42
2023-02-26T12:56:52.503Z,1.35
2023-02-26T12:59:45.232Z,1.48
2023-02-26T13:03:17.888Z,1.40
2023-02-26T13:06:11.360Z,1.30
2023-02-26T13:08:56.361Z,3.20
2023-02-26T13:14:21.977Z,1.42
2023-02-26T13:16:58.366Z,1.38
2023-02-26T13:19:51.917Z,2.20
2023-02-26T13:22:38.063Z,1.52
2023-02-26T13:25:19.356Z,1.25
2023-02-26T13:27:47.647Z,1.85
2023-02-26T13:30:24.562Z,1.35
2023-02-26T13:32:55.354Z,2.22
2023-02-26T13:35:29.543Z,1.20
2023-02-26T13:38:00.099Z,2.50
2023-02-26T13:40:48.006Z,0.88
2023-02-26T13:43:53.138Z,2.15
2023-02-26T13:46:28.758Z,1.90
2023-02-26T13:48:58.976Z,1.15
2023-02-26T13:51:39.608Z,1.85
2023-02-26T13:54:14.195Z,2.47
2023-02-26T13:56:55.428Z,1.25
2023-02-26T13:59:45.449Z,1.60
2023-02-26T14:02:35.930Z,1.85
2023-02-26T14:05:27.505Z,1.83
2023-02-26T14:08:18.516Z,1.48
2023-02-26T14:10:55.483Z,3.00
2023-02-26T14:13:35.424Z,1.92
2023-02-26T14:16:23.084Z,2.20
2023-02-26T14:18:52.392Z,1.33
2023-02-26T14:21:37.277Z,2.08
2023-02-26T14:24:10.379Z,1.35
2023-02-26T14:26:38.033Z,1.92
2023-02-26T14:29:05.244Z,0.80
2023-02-26T14:31:50.707Z,0.63
2023-02-26T14:34:31.953Z,1.75
2023-02-26T14:37:02.558Z,1.38
2023-02-26T14:39:55.668Z,1.23
2023-02-26T14:42:24.530Z,1.35
2023-02-26T14:45:02.042Z,0.80
2023-02-26T14:47:29.371Z,1.20
2023-02-26T14:50:00.351Z,0.95
2023-02-26T14:52:45.424Z,0.80
2023-02-26T14:58:20.699Z,0.88
2023-02-26T15:01:21.362Z,1.02
2023-02-26T15:04:08.029Z,1.13
2023-02-26T15:06:53.801Z,1.70
2023-02-26T15:09:51.317Z,1.02
2023-02-26T15:12:21.348Z,0.75
2023-02-26T15:15:09.972Z,2.50
2023-02-26T15:17:55.412Z,1.05
2023-02-26T15:20:46.294Z,1.45
2023-02-26T15:23:37.984Z,0.90
2023-02-26T15:26:06.997Z,1.33
2023-02-26T15:28:38.480Z,1.17
2023-02-26T15:31:07.812Z,0.95
2023-02-26T15:33:35.258Z,1.27
2023-02-26T15:36:13.279Z,0.85
2023-02-26T15:38:48.958Z,1.00
2023-02-26T15:41:18.220Z,1.30
2023-02-26T15:44:03.356Z,0.93
2023-02-26T15:46:37.601Z,1.42
2023-02-26T15:49:13.435Z,1.48
2023-02-26T15:51:42.707Z,0.82
2023-02-26T15:54:16.992Z,0.45
2023-02-26T15:56:44.551Z,1.42
2023-02-26T15:59:17.288Z,0.95
2023-02-26T16:01:44.916Z,1.42
2023-02-26T16:04:16.090Z,0.75
2023-02-26T16:06:55.839Z,0.82
2023-02-26T16:09:30.932Z,1.00
2023-02-26T16:12:07.869Z,1.38
2023-02-26T16:14:39.273Z,2.45
2023-02-26T16:17:11.709Z,1.38
2023-02-26T16:19:44.120Z,1.58
2023-02-26T16:22:33.673Z,1.00
2023-02-26T16:25:19.438Z,1.15
2023-02-26T16:27:55.315Z,1.10
2023-02-26T16:30:28.739Z,1.92
2023-02-26T16:32:57.659Z,0.60
2023-02-26T16:35:34.649Z,1.15
2023-02-26T16:38:17.918Z,1.25
2023-02-26T16:40:46.786Z,3.65
2023-02-26T16:43:35.444Z,1.65
2023-02-26T16:46:05.399Z,1.48
2023-02-26T16:48:47.357Z,1.00
2023-02-26T16:51:20.286Z,1.20
2023-02-26T16:53:52.768Z,2.20
2023-02-26T16:56:25.670Z,0.70
2023-02-26T16:59:14.713Z,1.30
2023-02-26T17:01:57.180Z,0.95
2023-02-26T17:04:29.317Z,1.17
2023-02-26T17:06:57.935Z,1.40
2023-02-26T17:09:40.338Z,0.77
2023-02-26T17:12:29.163Z,1.33
2023-02-26T17:14:58.847Z,1.13
2023-02-26T17:17:26.491Z,1.05
2023-02-26T17:19:53.980Z,2.40
2023-02-26T17:22:27.230Z,1.38
2023-02-26T17:24:54.687Z,1.30
2023-02-26T17:27:36.642Z,0.82
2023-02-26T17:30:06.816Z,1.55
2023-02-26T17:32:35.997Z,1.80
2023-02-26T17:35:03.594Z,1.10
2023-02-26T17:37:36.105Z,1.23
2023-02-26T17:40:11.240Z,0.65
2023-02-26T17:42:38.480Z,0.85
2023-02-26T17:45:06.088Z,0.85
2023-02-26T17:47:33.343Z,0.93
2023-02-26T17:50:00.603Z,0.57
2023-02-26T17:52:27.971Z,1.15
2023-02-26T17:54:55.206Z,1.25
2023-02-26T17:57:23.327Z,0.95
2023-02-26T17:59:50.666Z,0.95
2023-02-26T18:02:25.388Z,1.65
2023-02-26T18:07:22.236Z,0.68
2023-02-26T18:09:49.765Z,0.73
2023-02-26T18:12:20.309Z,0.88
2023-02-26T18:14:48.575Z,1.92
2023-02-26T18:17:19.337Z,1.42
2023-02-26T18:19:49.410Z,1.15
2023-02-26T18:22:18.861Z,1.70
2023-02-26T18:24:46.383Z,0.95
2023-02-26T18:27:19.931Z,0.98
2023-02-26T18:29:47.664Z,1.33
2023-02-26T18:32:21.049Z,1.05
2023-02-26T18:34:50.426Z,1.13
2023-02-26T18:37:20.857Z,1.17
2023-02-26T18:39:48.660Z,1.33
2023-02-26T18:42:23.029Z,1.10
2023-02-26T18:44:51.216Z,1.05
2023-02-26T18:47:19.959Z,1.65
2023-02-26T18:49:48.937Z,1.67
2023-02-26T18:52:16.714Z,0.90
2023-02-26T18:54:45.031Z,1.88
2023-02-26T18:57:12.557Z,1.70
2023-02-26T18:59:40.189Z,1.08
2023-02-26T19:02:11.878Z,1.27
2023-02-26T19:04:39.870Z,1.13
2023-02-26T19:07:07.817Z,1.13
2023-02-26T19:09:35.405Z,1.67
2023-02-26T19:12:03.212Z,2.03
2023-02-26T19:14:30.558Z,1.95
2023-02-26T19:16:57.817Z,1.75
2023-02-26T19:19:25.216Z,1.45
2023-02-26T19:21:53.819Z,1.65
2023-02-26T19:24:21.126Z,0.57
2023-02-26T19:26:49.168Z,2.55
2023-02-26T19:29:18.813Z,1.65
2023-02-26T19:31:46.684Z,2.05
2023-02-26T19:34:14.530Z,0.60
2023-02-26T19:36:47.999Z,2.33
2023-02-26T19:39:17.089Z,0.95
2023-02-26T19:41:45.766Z,1.40
2023-02-26T19:44:13.103Z,1.90
2023-02-26T19:46:41.982Z,0.90
2023-02-26T19:49:12.372Z,3.30
2023-02-26T19:51:39.869Z,1.15
2023-02-26T19:54:07.768Z,1.85
2023-02-26T19:56:35.674Z,1.13
2023-02-26T19:59:03.304Z,1.23
2023-02-26T20:01:31.150Z,2.67
2023-02-26T20:03:58.829Z,1.05
2023-02-26T20:06:26.303Z,1.75
2023-02-26T20:08:53.656Z,1.35
2023-02-26T20:11:21.048Z,1.23
2023-02-26T20:13:48.349Z,1.40
2023-02-26T20:16:16.305Z,1.73
2023-02-26T20:18:45.770Z,3.13
2023-02-26T20:21:13.857Z,8.75
2023-02-26T20:23:41.866Z,3.75
2023-02-26T20:26:12.519Z,4.45
2023-02-26T20:28:40.370Z,5.43
2023-02-26T20:31:08.255Z,7.72
2023-02-26T20:33:37.452Z,3.13
2023-02-26T20:36:05.699Z,6.47
2023-02-26T20:38:33.246Z,5.32
2023-02-26T20:41:00.710Z,6.22
2023-02-26T20:43:27.993Z,7.63
2023-02-26T20:45:56.602Z,10.25
2023-02-26T20:48:24.754Z,2.80
2023-02-26T20:50:53.715Z,7.15
2023-02-26T20:53:21.942Z,5.32
2023-02-26T20:55:49.651Z,4.78
2023-02-26T20:58:17.224Z,8.70
2023-02-26T21:00:44.602Z,5.10
2023-02-26T21:03:11.947Z,7.60
2023-02-26T21:05:39.946Z,3.95
2023-02-26T21:08:07.489Z,6.45
2023-02-26T21:10:34.759Z,5.82
2023-02-26T21:13:02.125Z,7.85
2023-02-26T21:15:29.392Z,9.10
2023-02-26T21:17:56.697Z,5.55
2023-02-26T21:20:23.974Z,9.40
2023-02-26T21:22:51.506Z,5.65
2023-02-26T21:25:18.967Z,9.63
2023-02-26T21:27:46.297Z,6.93
2023-02-26T21:30:14.990Z,7.70
2023-02-26T21:32:42.962Z,10.10
2023-02-26T21:35:15.690Z,5.95
2023-02-26T21:37:44.342Z,4.85
2023-02-26T21:40:13.552Z,7.10
2023-02-26T21:42:41.298Z,5.35
2023-02-26T21:45:09.854Z,7.22
2023-02-26T21:47:37.641Z,7.68
2023-02-26T21:50:06.337Z,3.95
2023-02-26T21:52:33.784Z,3.67
2023-02-26T21:55:01.153Z,4.10
2023-02-26T21:57:30.078Z,4.38
2023-02-26T21:59:57.882Z,3.67
2023-02-26T22:02:25.801Z,6.93
2023-02-26T22:04:53.068Z,6.10
2023-02-26T22:07:20.388Z,4.85
2023-02-26T22:09:48.951Z,2.80
2023-02-26T22:12:17.294Z,5.63
2023-02-26T22:14:44.869Z,5.68
2023-02-26T22:17:12.718Z,5.88
2023-02-26T22:19:40.052Z,3.97
2023-02-26T22:22:07.547Z,3.13
2023-02-26T22:24:34.936Z,4.65
2023-02-26T22:27:02.508Z,2.83
2023-02-26T22:29:29.869Z,5.65
2023-02-26T22:31:57.273Z,2.78
2023-02-26T22:34:24.760Z,4.20
2023-02-26T22:36:52.627Z,2.35
2023-02-26T22:39:20.424Z,4.57
2023-02-26T22:41:47.894Z,2.38
2023-02-26T22:44:15.219Z,1.65
2023-02-26T22:46:42.735Z,2.63
2023-02-26T22:49:10.255Z,2.58
2023-02-26T22:51:37.639Z,3.65
2023-02-26T22:54:04.974Z,2.35
2023-02-26T22:56:32.526Z,2.13
2023-02-26T22:58:59.926Z,3.10
2023-02-26T23:01:29.706Z,2.40
2023-02-26T23:03:57.205Z,1.70
2023-02-26T23:06:24.634Z,2.35
2023-02-26T23:08:52.281Z,3.58
2023-02-26T23:11:19.822Z,2.13
2023-02-26T23:13:47.228Z,2.13
2023-02-26T23:16:14.594Z,3.60
2023-02-26T23:18:45.389Z,2.70
2023-02-26T23:21:12.685Z,1.85
2023-02-26T23:23:40.070Z,1.73
2023-02-26T23:26:07.820Z,2.47
2023-02-26T23:28:35.677Z,1.73
2023-02-26T23:31:03.129Z,1.95
2023-02-26T23:33:30.544Z,1.10
2023-02-26T23:35:58.071Z,1.33
2023-02-26T23:38:25.302Z,2.13
2023-02-26T23:40:52.654Z,1.75
2023-02-26T23:43:20.005Z,1.60
2023-02-26T23:45:47.233Z,3.55
2023-02-26T23:48:14.742Z,2.00
2023-02-26T23:50:42.060Z,1.85
2023-02-26T23:53:09.520Z,1.77
2023-02-26T23:55:36.726Z,1.73
2023-02-26T23:58:04.003Z,2.95
